sensor_id;sensor_type;location;lat;lon;timestamp;P1;durP1;ratioP1;P2;durP2;ratioP2
76167;SDS011;64927;48.214;16.378;2023-02-01T00:00:45;3.25;;;1.95;;
76167;SDS011;64927;48.214;16.378;2023-02-01T00:03:13;3.50;;;1.48;;
76167;SDS011;64927;48.214;16.378;2023-02-01T00:05:39;2.63;;;1.85;;
76167;SDS011;64927;48.214;16.378;2023-02-01T00:08:05;3.28;;;1.85;;
76167;SDS011;64927;48.214;16.378;2023-02-01T00:10:33;4.55;;;2.10;;
76167;SDS011;64927;48.214;16.378;2023-02-01T00:12:58;3.95;;;1.45;;
76167;SDS011;64927;48.214;16.378;2023-02-01T00:15:24;2.13;;;1.40;;
76167;SDS011;64927;48.214;16.378;2023-02-01T00:17:55;3.30;;;1.95;;
76167;SDS011;64927;48.214;16.378;2023-02-01T00:20:21;2.58;;;1.80;;
76167;SDS011;64927;48.214;16.378;2023-02-01T00:22:46;2.63;;;1.50;;
76167;SDS011;64927;48.214;16.378;2023-02-01T00:25:14;3.03;;;1.63;;
76167;SDS011;64927;48.214;16.378;2023-02-01T00:27:40;3.25;;;1.58;;
76167;SDS011;64927;48.214;16.378;2023-02-01T00:30:09;1.75;;;1.23;;
76167;SDS011;64927;48.214;16.378;2023-02-01T00:32:38;2.30;;;1.35;;
76167;SDS011;64927;48.214;16.378;2023-02-01T00:35:04;1.33;;;1.17;;
76167;SDS011;64927;48.214;16.378;2023-02-01T00:37:30;2.22;;;1.38;;
76167;SDS011;64927;48.214;16.378;2023-02-01T00:39:56;2.50;;;1.88;;
76167;SDS011;64927;48.214;16.378;2023-02-01T00:42:21;2.13;;;1.27;;
76167;SDS011;64927;48.214;16.378;2023-02-01T00:44:47;1.98;;;1.50;;
76167;SDS011;64927;48.214;16.378;2023-02-01T00:47:13;3.38;;;1.55;;
76167;SDS011;64927;48.214;16.378;2023-02-01T00:49:38;1.67;;;1.30;;
76167;SDS011;64927;48.214;16.378;2023-02-01T00:52:04;2.47;;;2.10;;
76167;SDS011;64927;48.214;16.378;2023-02-01T00:54:30;2.47;;;1.75;;
76167;SDS011;64927;48.214;16.378;2023-02-01T00:56:55;2.47;;;1.67;;
76167;SDS011;64927;48.214;16.378;2023-02-01T00:59:21;4.70;;;2.30;;
76167;SDS011;64927;48.214;16.378;2023-02-01T01:01:46;2.28;;;1.80;;
76167;SDS011;64927;48.214;16.378;2023-02-01T01:04:12;3.15;;;2.15;;
76167;SDS011;64927;48.214;16.378;2023-02-01T01:06:38;4.38;;;2.10;;
76167;SDS011;64927;48.214;16.378;2023-02-01T01:09:04;2.90;;;2.22;;
76167;SDS011;64927;48.214;16.378;2023-02-01T01:11:33;3.15;;;2.53;;
76167;SDS011;64927;48.214;16.378;2023-02-01T01:14:04;4.65;;;2.60;;
76167;SDS011;64927;48.214;16.378;2023-02-01T01:16:31;2.95;;;2.42;;
76167;SDS011;64927;48.214;16.378;2023-02-01T01:18:58;1.90;;;1.60;;
76167;SDS011;64927;48.214;16.378;2023-02-01T01:21:25;3.00;;;2.10;;
76167;SDS011;64927;48.214;16.378;2023-02-01T01:23:54;3.58;;;2.08;;
76167;SDS011;64927;48.214;16.378;2023-02-01T01:26:21;5.20;;;2.20;;
76167;SDS011;64927;48.214;16.378;2023-02-01T01:28:49;5.05;;;2.45;;
76167;SDS011;64927;48.214;16.378;2023-02-01T01:31:16;5.15;;;1.90;;
76167;SDS011;64927;48.214;16.378;2023-02-01T01:33:47;1.88;;;1.67;;
76167;SDS011;64927;48.214;16.378;2023-02-01T01:36:14;1.80;;;1.33;;
76167;SDS011;64927;48.214;16.378;2023-02-01T01:38:40;3.40;;;1.83;;
76167;SDS011;64927;48.214;16.378;2023-02-01T01:41:06;3.70;;;1.50;;
76167;SDS011;64927;48.214;16.378;2023-02-01T01:46:32;1.88;;;1.42;;
76167;SDS011;64927;48.214;16.378;2023-02-01T01:49:15;1.92;;;1.48;;
76167;SDS011;64927;48.214;16.378;2023-02-01T01:51:52;2.42;;;1.73;;
76167;SDS011;64927;48.214;16.378;2023-02-01T01:56:53;2.88;;;1.73;;
76167;SDS011;64927;48.214;16.378;2023-02-01T01:59:22;2.42;;;1.92;;
76167;SDS011;64927;48.214;16.378;2023-02-01T02:01:49;3.30;;;2.22;;
76167;SDS011;64927;48.214;16.378;2023-02-01T02:04:16;3.55;;;2.28;;
76167;SDS011;64927;48.214;16.378;2023-02-01T02:06:45;3.35;;;2.20;;
76167;SDS011;64927;48.214;16.378;2023-02-01T02:09:17;2.60;;;1.88;;
76167;SDS011;64927;48.214;16.378;2023-02-01T02:11:44;2.97;;;2.08;;
76167;SDS011;64927;48.214;16.378;2023-02-01T02:14:11;3.00;;;2.08;;
76167;SDS011;64927;48.214;16.378;2023-02-01T02:16:59;3.47;;;2.25;;
76167;SDS011;64927;48.214;16.378;2023-02-01T02:28:12;4.38;;;2.42;;
76167;SDS011;64927;48.214;16.378;2023-02-01T02:31:46;3.47;;;1.92;;
76167;SDS011;64927;48.214;16.378;2023-02-01T02:37:28;3.22;;;2.05;;
76167;SDS011;64927;48.214;16.378;2023-02-01T02:43:09;2.10;;;1.70;;
76167;SDS011;64927;48.214;16.378;2023-02-01T02:48:53;3.85;;;1.77;;
76167;SDS011;64927;48.214;16.378;2023-02-01T02:51:27;2.60;;;2.03;;
76167;SDS011;64927;48.214;16.378;2023-02-01T02:54:28;2.72;;;2.10;;
76167;SDS011;64927;48.214;16.378;2023-02-01T02:57:30;2.67;;;2.03;;
76167;SDS011;64927;48.214;16.378;2023-02-01T03:00:21;3.15;;;2.00;;
76167;SDS011;64927;48.214;16.378;2023-02-01T03:03:08;3.78;;;1.92;;
76167;SDS011;64927;48.214;16.378;2023-02-01T03:05:52;2.33;;;1.73;;
76167;SDS011;64927;48.214;16.378;2023-02-01T03:08:21;2.97;;;1.80;;
76167;SDS011;64927;48.214;16.378;2023-02-01T03:13:37;3.22;;;1.70;;
76167;SDS011;64927;48.214;16.378;2023-02-01T03:16:22;2.20;;;1.83;;
76167;SDS011;64927;48.214;16.378;2023-02-01T03:18:57;3.30;;;2.00;;
76167;SDS011;64927;48.214;16.378;2023-02-01T03:24:05;2.40;;;2.00;;
76167;SDS011;64927;48.214;16.378;2023-02-01T03:26:55;3.42;;;1.98;;
76167;SDS011;64927;48.214;16.378;2023-02-01T03:29:28;4.32;;;2.33;;
76167;SDS011;64927;48.214;16.378;2023-02-01T03:31:58;3.53;;;1.98;;
76167;SDS011;64927;48.214;16.378;2023-02-01T03:34:26;4.45;;;2.03;;
76167;SDS011;64927;48.214;16.378;2023-02-01T03:37:01;2.42;;;1.80;;
76167;SDS011;64927;48.214;16.378;2023-02-01T03:42:37;3.38;;;2.05;;
76167;SDS011;64927;48.214;16.378;2023-02-01T03:45:12;3.70;;;1.98;;
76167;SDS011;64927;48.214;16.378;2023-02-01T03:47:47;3.67;;;2.20;;
76167;SDS011;64927;48.214;16.378;2023-02-01T03:50:18;5.00;;;2.40;;
76167;SDS011;64927;48.214;16.378;2023-02-01T03:52:50;2.83;;;1.88;;
76167;SDS011;64927;48.214;16.378;2023-02-01T03:55:32;2.15;;;1.88;;
76167;SDS011;64927;48.214;16.378;2023-02-01T04:00:29;2.50;;;2.13;;
76167;SDS011;64927;48.214;16.378;2023-02-01T04:02:58;4.95;;;2.22;;
76167;SDS011;64927;48.214;16.378;2023-02-01T04:05:24;2.65;;;2.20;;
76167;SDS011;64927;48.214;16.378;2023-02-01T04:07:50;3.97;;;2.50;;
76167;SDS011;64927;48.214;16.378;2023-02-01T04:10:16;3.72;;;2.45;;
76167;SDS011;64927;48.214;16.378;2023-02-01T04:12:41;5.13;;;2.70;;
76167;SDS011;64927;48.214;16.378;2023-02-01T04:15:07;5.10;;;2.40;;
76167;SDS011;64927;48.214;16.378;2023-02-01T04:17:33;4.47;;;2.95;;
76167;SDS011;64927;48.214;16.378;2023-02-01T04:19:59;3.67;;;3.00;;
76167;SDS011;64927;48.214;16.378;2023-02-01T04:22:25;4.53;;;2.63;;
76167;SDS011;64927;48.214;16.378;2023-02-01T04:24:50;4.35;;;2.85;;
76167;SDS011;64927;48.214;16.378;2023-02-01T04:27:16;5.55;;;2.80;;
76167;SDS011;64927;48.214;16.378;2023-02-01T04:29:44;4.97;;;2.45;;
76167;SDS011;64927;48.214;16.378;2023-02-01T04:32:10;4.72;;;3.08;;
76167;SDS011;64927;48.214;16.378;2023-02-01T04:34:36;6.30;;;3.25;;
76167;SDS011;64927;48.214;16.378;2023-02-01T04:37:01;4.20;;;3.13;;
76167;SDS011;64927;48.214;16.378;2023-02-01T04:39:27;5.97;;;3.13;;
76167;SDS011;64927;48.214;16.378;2023-02-01T04:41:53;5.75;;;3.40;;
76167;SDS011;64927;48.214;16.378;2023-02-01T04:44:19;6.05;;;3.67;;
76167;SDS011;64927;48.214;16.378;2023-02-01T04:46:46;4.18;;;3.10;;
76167;SDS011;64927;48.214;16.378;2023-02-01T04:49:13;5.57;;;3.25;;
76167;SDS011;64927;48.214;16.378;2023-02-01T04:51:39;5.25;;;3.15;;
76167;SDS011;64927;48.214;16.378;2023-02-01T04:54:05;9.55;;;3.58;;
76167;SDS011;64927;48.214;16.378;2023-02-01T04:56:36;5.53;;;3.30;;
76167;SDS011;64927;48.214;16.378;2023-02-01T04:59:02;4.28;;;3.05;;
76167;SDS011;64927;48.214;16.378;2023-02-01T05:01:28;3.72;;;3.10;;
76167;SDS011;64927;48.214;16.378;2023-02-01T05:03:54;5.28;;;3.75;;
76167;SDS011;64927;48.214;16.378;2023-02-01T05:06:22;5.13;;;3.20;;
76167;SDS011;64927;48.214;16.378;2023-02-01T05:08:50;5.35;;;2.70;;
76167;SDS011;64927;48.214;16.378;2023-02-01T05:11:16;4.43;;;2.58;;
76167;SDS011;64927;48.214;16.378;2023-02-01T05:14:00;4.50;;;2.90;;
76167;SDS011;64927;48.214;16.378;2023-02-01T05:16:26;7.18;;;4.43;;
76167;SDS011;64927;48.214;16.378;2023-02-01T05:18:54;2.92;;;2.50;;
76167;SDS011;64927;48.214;16.378;2023-02-01T05:21:20;6.10;;;3.00;;
76167;SDS011;64927;48.214;16.378;2023-02-01T05:23:46;3.55;;;3.00;;
76167;SDS011;64927;48.214;16.378;2023-02-01T05:26:32;4.78;;;2.92;;
76167;SDS011;64927;48.214;16.378;2023-02-01T05:28:58;3.80;;;2.85;;
76167;SDS011;64927;48.214;16.378;2023-02-01T05:31:27;3.83;;;2.78;;
76167;SDS011;64927;48.214;16.378;2023-02-01T05:33:55;6.03;;;3.60;;
76167;SDS011;64927;48.214;16.378;2023-02-01T05:36:21;4.85;;;3.67;;
76167;SDS011;64927;48.214;16.378;2023-02-01T05:38:46;7.40;;;3.40;;
76167;SDS011;64927;48.214;16.378;2023-02-01T05:41:12;9.13;;;3.40;;
76167;SDS011;64927;48.214;16.378;2023-02-01T05:43:38;5.03;;;3.50;;
76167;SDS011;64927;48.214;16.378;2023-02-01T05:46:03;5.35;;;3.25;;
76167;SDS011;64927;48.214;16.378;2023-02-01T05:48:29;5.35;;;3.58;;
76167;SDS011;64927;48.214;16.378;2023-02-01T05:50:55;4.35;;;3.47;;
76167;SDS011;64927;48.214;16.378;2023-02-01T05:53:21;4.43;;;3.20;;
76167;SDS011;64927;48.214;16.378;2023-02-01T05:55:46;4.07;;;2.95;;
76167;SDS011;64927;48.214;16.378;2023-02-01T05:58:12;4.00;;;2.90;;
76167;SDS011;64927;48.214;16.378;2023-02-01T06:00:38;5.45;;;2.90;;
76167;SDS011;64927;48.214;16.378;2023-02-01T06:03:05;5.25;;;3.22;;
76167;SDS011;64927;48.214;16.378;2023-02-01T06:05:31;4.28;;;2.75;;
76167;SDS011;64927;48.214;16.378;2023-02-01T06:07:57;5.03;;;2.72;;
76167;SDS011;64927;48.214;16.378;2023-02-01T06:10:24;3.72;;;2.85;;
76167;SDS011;64927;48.214;16.378;2023-02-01T06:12:50;4.05;;;3.30;;
76167;SDS011;64927;48.214;16.378;2023-02-01T06:15:16;3.38;;;2.65;;
76167;SDS011;64927;48.214;16.378;2023-02-01T06:17:43;5.07;;;3.15;;
76167;SDS011;64927;48.214;16.378;2023-02-01T06:20:10;4.93;;;3.50;;
76167;SDS011;64927;48.214;16.378;2023-02-01T06:22:40;5.30;;;2.92;;
76167;SDS011;64927;48.214;16.378;2023-02-01T06:25:10;5.10;;;3.25;;
76167;SDS011;64927;48.214;16.378;2023-02-01T06:27:38;4.43;;;3.38;;
76167;SDS011;64927;48.214;16.378;2023-02-01T06:30:04;4.60;;;3.17;;
76167;SDS011;64927;48.214;16.378;2023-02-01T06:32:31;4.72;;;3.38;;
76167;SDS011;64927;48.214;16.378;2023-02-01T06:34:59;5.28;;;3.22;;
76167;SDS011;64927;48.214;16.378;2023-02-01T06:37:27;4.20;;;3.33;;
76167;SDS011;64927;48.214;16.378;2023-02-01T06:39:54;4.90;;;3.55;;
76167;SDS011;64927;48.214;16.378;2023-02-01T06:42:20;4.60;;;3.45;;
76167;SDS011;64927;48.214;16.378;2023-02-01T06:44:46;3.65;;;3.00;;
76167;SDS011;64927;48.214;16.378;2023-02-01T06:47:11;5.90;;;3.33;;
76167;SDS011;64927;48.214;16.378;2023-02-01T06:49:39;4.85;;;3.20;;
76167;SDS011;64927;48.214;16.378;2023-02-01T06:52:05;4.68;;;3.10;;
76167;SDS011;64927;48.214;16.378;2023-02-01T06:54:31;6.78;;;3.45;;
76167;SDS011;64927;48.214;16.378;2023-02-01T06:57:00;8.30;;;3.40;;
76167;SDS011;64927;48.214;16.378;2023-02-01T06:59:26;4.40;;;3.30;;
76167;SDS011;64927;48.214;16.378;2023-02-01T07:01:52;4.00;;;3.20;;
76167;SDS011;64927;48.214;16.378;2023-02-01T07:04:17;4.75;;;3.03;;
76167;SDS011;64927;48.214;16.378;2023-02-01T07:06:45;6.35;;;2.90;;
76167;SDS011;64927;48.214;16.378;2023-02-01T07:09:13;4.32;;;3.22;;
76167;SDS011;64927;48.214;16.378;2023-02-01T07:11:39;3.15;;;2.85;;
76167;SDS011;64927;48.214;16.378;2023-02-01T07:14:09;6.07;;;3.42;;
76167;SDS011;64927;48.214;16.378;2023-02-01T07:16:36;5.50;;;2.90;;
76167;SDS011;64927;48.214;16.378;2023-02-01T07:19:01;4.15;;;2.65;;
76167;SDS011;64927;48.214;16.378;2023-02-01T07:21:27;4.82;;;2.58;;
76167;SDS011;64927;48.214;16.378;2023-02-01T07:23:53;4.53;;;2.70;;
76167;SDS011;64927;48.214;16.378;2023-02-01T07:26:20;3.83;;;2.70;;
76167;SDS011;64927;48.214;16.378;2023-02-01T07:28:45;3.22;;;2.53;;
76167;SDS011;64927;48.214;16.378;2023-02-01T07:31:15;3.35;;;2.70;;
76167;SDS011;64927;48.214;16.378;2023-02-01T07:33:47;3.40;;;2.35;;
76167;SDS011;64927;48.214;16.378;2023-02-01T07:36:17;5.53;;;2.60;;
76167;SDS011;64927;48.214;16.378;2023-02-01T07:38:45;4.95;;;1.92;;
76167;SDS011;64927;48.214;16.378;2023-02-01T07:41:16;5.90;;;2.65;;
76167;SDS011;64927;48.214;16.378;2023-02-01T07:43:42;3.90;;;2.45;;
76167;SDS011;64927;48.214;16.378;2023-02-01T07:46:09;3.85;;;2.40;;
76167;SDS011;64927;48.214;16.378;2023-02-01T07:48:37;4.55;;;2.47;;
76167;SDS011;64927;48.214;16.378;2023-02-01T07:51:09;3.17;;;2.60;;
76167;SDS011;64927;48.214;16.378;2023-02-01T07:53:40;2.95;;;2.45;;
76167;SDS011;64927;48.214;16.378;2023-02-01T07:56:13;4.00;;;2.75;;
76167;SDS011;64927;48.214;16.378;2023-02-01T07:58:42;4.65;;;3.00;;
76167;SDS011;64927;48.214;16.378;2023-02-01T08:01:17;4.47;;;2.53;;
76167;SDS011;64927;48.214;16.378;2023-02-01T08:06:18;4.93;;;3.15;;
76167;SDS011;64927;48.214;16.378;2023-02-01T08:08:47;3.92;;;3.30;;
76167;SDS011;64927;48.214;16.378;2023-02-01T08:11:14;3.90;;;3.22;;
76167;SDS011;64927;48.214;16.378;2023-02-01T08:13:43;4.80;;;2.95;;
76167;SDS011;64927;48.214;16.378;2023-02-01T08:16:10;5.32;;;3.40;;
76167;SDS011;64927;48.214;16.378;2023-02-01T08:18:36;7.30;;;3.25;;
76167;SDS011;64927;48.214;16.378;2023-02-01T08:21:06;4.10;;;2.75;;
76167;SDS011;64927;48.214;16.378;2023-02-01T08:23:36;6.00;;;3.10;;
76167;SDS011;64927;48.214;16.378;2023-02-01T08:26:22;5.68;;;3.53;;
76167;SDS011;64927;48.214;16.378;2023-02-01T08:28:50;5.00;;;3.50;;
76167;SDS011;64927;48.214;16.378;2023-02-01T08:31:20;6.97;;;3.50;;
76167;SDS011;64927;48.214;16.378;2023-02-01T08:33:49;5.47;;;3.38;;
76167;SDS011;64927;48.214;16.378;2023-02-01T08:36:19;5.32;;;3.15;;
76167;SDS011;64927;48.214;16.378;2023-02-01T08:38:45;4.13;;;3.10;;
76167;SDS011;64927;48.214;16.378;2023-02-01T08:41:12;6.25;;;3.45;;
76167;SDS011;64927;48.214;16.378;2023-02-01T08:43:40;4.22;;;2.88;;
76167;SDS011;64927;48.214;16.378;2023-02-01T08:46:06;4.90;;;3.40;;
76167;SDS011;64927;48.214;16.378;2023-02-01T08:48:33;3.78;;;3.05;;
76167;SDS011;64927;48.214;16.378;2023-02-01T08:51:10;4.88;;;2.80;;
76167;SDS011;64927;48.214;16.378;2023-02-01T08:53:37;4.18;;;3.33;;
76167;SDS011;64927;48.214;16.378;2023-02-01T08:56:06;7.03;;;4.70;;
76167;SDS011;64927;48.214;16.378;2023-02-01T08:58:33;6.32;;;3.17;;
76167;SDS011;64927;48.214;16.378;2023-02-01T09:01:03;4.50;;;2.90;;
76167;SDS011;64927;48.214;16.378;2023-02-01T09:03:33;6.80;;;2.97;;
76167;SDS011;64927;48.214;16.378;2023-02-01T09:06:09;4.13;;;2.90;;
76167;SDS011;64927;48.214;16.378;2023-02-01T09:08:37;6.70;;;2.97;;
76167;SDS011;64927;48.214;16.378;2023-02-01T09:11:06;7.13;;;3.55;;
76167;SDS011;64927;48.214;16.378;2023-02-01T09:13:35;6.72;;;3.35;;
76167;SDS011;64927;48.214;16.378;2023-02-01T09:16:02;6.75;;;3.63;;
76167;SDS011;64927;48.214;16.378;2023-02-01T09:18:28;5.80;;;3.40;;
76167;SDS011;64927;48.214;16.378;2023-02-01T09:20:53;6.03;;;3.53;;
76167;SDS011;64927;48.214;16.378;2023-02-01T09:23:19;5.03;;;3.40;;
76167;SDS011;64927;48.214;16.378;2023-02-01T09:25:45;6.97;;;4.70;;
76167;SDS011;64927;48.214;16.378;2023-02-01T09:28:13;7.75;;;4.53;;
76167;SDS011;64927;48.214;16.378;2023-02-01T09:30:41;5.10;;;3.60;;
76167;SDS011;64927;48.214;16.378;2023-02-01T09:33:09;6.78;;;3.40;;
76167;SDS011;64927;48.214;16.378;2023-02-01T09:35:35;6.32;;;3.60;;
76167;SDS011;64927;48.214;16.378;2023-02-01T09:38:00;5.72;;;3.78;;
76167;SDS011;64927;48.214;16.378;2023-02-01T09:40:26;5.28;;;3.60;;
76167;SDS011;64927;48.214;16.378;2023-02-01T09:46:31;5.15;;;3.03;;
76167;SDS011;64927;48.214;16.378;2023-02-01T09:49:02;5.03;;;2.90;;
76167;SDS011;64927;48.214;16.378;2023-02-01T09:51:37;6.13;;;3.70;;
76167;SDS011;64927;48.214;16.378;2023-02-01T09:54:11;5.17;;;3.87;;
76167;SDS011;64927;48.214;16.378;2023-02-01T09:56:47;4.63;;;2.60;;
76167;SDS011;64927;48.214;16.378;2023-02-01T10:02:10;5.15;;;3.17;;
76167;SDS011;64927;48.214;16.378;2023-02-01T10:05:00;5.03;;;3.00;;
76167;SDS011;64927;48.214;16.378;2023-02-01T10:08:04;4.30;;;2.65;;
76167;SDS011;64927;48.214;16.378;2023-02-01T10:10:30;4.90;;;3.38;;
76167;SDS011;64927;48.214;16.378;2023-02-01T10:18:31;3.92;;;2.20;;
76167;SDS011;64927;48.214;16.378;2023-02-01T10:26:42;4.25;;;2.42;;
76167;SDS011;64927;48.214;16.378;2023-02-01T10:29:17;4.85;;;2.40;;
76167;SDS011;64927;48.214;16.378;2023-02-01T10:31:47;5.03;;;3.10;;
76167;SDS011;64927;48.214;16.378;2023-02-01T10:34:21;3.20;;;2.40;;
76167;SDS011;64927;48.214;16.378;2023-02-01T10:39:45;2.50;;;2.25;;
76167;SDS011;64927;48.214;16.378;2023-02-01T10:42:15;2.70;;;1.80;;
76167;SDS011;64927;48.214;16.378;2023-02-01T10:44:45;3.28;;;2.00;;
76167;SDS011;64927;48.214;16.378;2023-02-01T10:47:13;2.67;;;1.75;;
76167;SDS011;64927;48.214;16.378;2023-02-01T10:52:27;2.80;;;2.10;;
76167;SDS011;64927;48.214;16.378;2023-02-01T10:55:28;3.67;;;2.50;;
76167;SDS011;64927;48.214;16.378;2023-02-01T10:58:18;3.78;;;1.80;;
76167;SDS011;64927;48.214;16.378;2023-02-01T11:03:44;4.75;;;2.97;;
76167;SDS011;64927;48.214;16.378;2023-02-01T11:08:47;3.25;;;2.10;;
76167;SDS011;64927;48.214;16.378;2023-02-01T11:11:15;5.18;;;2.10;;
76167;SDS011;64927;48.214;16.378;2023-02-01T11:13:41;3.65;;;2.35;;
76167;SDS011;64927;48.214;16.378;2023-02-01T11:16:10;3.22;;;2.20;;
76167;SDS011;64927;48.214;16.378;2023-02-01T11:18:39;3.28;;;2.28;;
76167;SDS011;64927;48.214;16.378;2023-02-01T11:21:06;4.72;;;2.42;;
76167;SDS011;64927;48.214;16.378;2023-02-01T11:23:33;2.90;;;2.10;;
76167;SDS011;64927;48.214;16.378;2023-02-01T11:28:56;3.95;;;2.50;;
76167;SDS011;64927;48.214;16.378;2023-02-01T11:31:36;6.20;;;2.88;;
76167;SDS011;64927;48.214;16.378;2023-02-01T11:34:11;8.18;;;2.67;;
76167;SDS011;64927;48.214;16.378;2023-02-01T11:36:40;5.05;;;2.88;;
76167;SDS011;64927;48.214;16.378;2023-02-01T11:39:26;4.80;;;2.45;;
76167;SDS011;64927;48.214;16.378;2023-02-01T11:42:15;10.80;;;3.60;;
76167;SDS011;64927;48.214;16.378;2023-02-01T11:44:48;7.13;;;3.28;;
76167;SDS011;64927;48.214;16.378;2023-02-01T11:50:12;7.25;;;3.22;;
76167;SDS011;64927;48.214;16.378;2023-02-01T12:01:52;10.52;;;4.60;;
76167;SDS011;64927;48.214;16.378;2023-02-01T12:13:01;11.20;;;5.93;;
76167;SDS011;64927;48.214;16.378;2023-02-01T12:43:42;3.28;;;1.98;;
76167;SDS011;64927;48.214;16.378;2023-02-01T12:49:43;2.20;;;1.45;;
76167;SDS011;64927;48.214;16.378;2023-02-01T12:52:04;1.85;;;1.45;;
76167;SDS011;64927;48.214;16.378;2023-02-01T12:57:16;3.33;;;1.73;;
76167;SDS011;64927;48.214;16.378;2023-02-01T13:02:42;5.85;;;1.70;;
76167;SDS011;64927;48.214;16.378;2023-02-01T13:05:19;2.35;;;1.55;;
76167;SDS011;64927;48.214;16.378;2023-02-01T13:10:34;2.65;;;1.70;;
76167;SDS011;64927;48.214;16.378;2023-02-01T13:15:58;3.30;;;1.77;;
76167;SDS011;64927;48.214;16.378;2023-02-01T13:18:51;6.18;;;2.70;;
76167;SDS011;64927;48.214;16.378;2023-02-01T13:21:24;3.38;;;1.70;;
76167;SDS011;64927;48.214;16.378;2023-02-01T13:23:51;3.78;;;1.83;;
76167;SDS011;64927;48.214;16.378;2023-02-01T13:28:51;2.33;;;1.50;;
76167;SDS011;64927;48.214;16.378;2023-02-01T13:38:15;3.15;;;1.88;;
76167;SDS011;64927;48.214;16.378;2023-02-01T13:41:07;3.53;;;2.10;;
76167;SDS011;64927;48.214;16.378;2023-02-01T13:43:52;2.45;;;1.00;;
76167;SDS011;64927;48.214;16.378;2023-02-01T13:46:54;1.92;;;1.05;;
76167;SDS011;64927;48.214;16.378;2023-02-01T13:49:26;3.20;;;1.20;;
76167;SDS011;64927;48.214;16.378;2023-02-01T13:52:00;6.20;;;1.20;;
76167;SDS011;64927;48.214;16.378;2023-02-01T13:54:47;2.25;;;1.05;;
76167;SDS011;64927;48.214;16.378;2023-02-01T13:57:31;3.92;;;0.95;;
76167;SDS011;64927;48.214;16.378;2023-02-01T14:23:47;5.13;;;1.75;;
76167;SDS011;64927;48.214;16.378;2023-02-01T14:26:21;5.45;;;3.22;;
76167;SDS011;64927;48.214;16.378;2023-02-01T14:29:00;6.50;;;2.83;;
76167;SDS011;64927;48.214;16.378;2023-02-01T14:31:38;4.90;;;1.25;;
76167;SDS011;64927;48.214;16.378;2023-02-01T14:34:39;2.17;;;1.10;;
76167;SDS011;64927;48.214;16.378;2023-02-01T14:39:52;4.47;;;0.90;;
76167;SDS011;64927;48.214;16.378;2023-02-01T15:01:33;1.23;;;0.73;;
76167;SDS011;64927;48.214;16.378;2023-02-01T15:06:41;0.70;;;0.60;;
76167;SDS011;64927;48.214;16.378;2023-02-01T15:12:05;0.98;;;0.60;;
76167;SDS011;64927;48.214;16.378;2023-02-01T15:14:32;1.42;;;0.90;;
76167;SDS011;64927;48.214;16.378;2023-02-01T15:17:00;1.25;;;0.80;;
76167;SDS011;64927;48.214;16.378;2023-02-01T15:19:27;1.98;;;1.00;;
76167;SDS011;64927;48.214;16.378;2023-02-01T15:21:55;1.60;;;0.80;;
76167;SDS011;64927;48.214;16.378;2023-02-01T15:24:23;3.13;;;1.30;;
76167;SDS011;64927;48.214;16.378;2023-02-01T15:26:51;4.50;;;2.00;;
76167;SDS011;64927;48.214;16.378;2023-02-01T15:29:18;4.22;;;2.35;;
76167;SDS011;64927;48.214;16.378;2023-02-01T15:31:51;5.93;;;2.40;;
76167;SDS011;64927;48.214;16.378;2023-02-01T15:34:20;2.65;;;1.40;;
76167;SDS011;64927;48.214;16.378;2023-02-01T15:36:48;2.30;;;1.17;;
76167;SDS011;64927;48.214;16.378;2023-02-01T15:39:24;3.55;;;1.42;;
76167;SDS011;64927;48.214;16.378;2023-02-01T15:46:58;4.65;;;2.88;;
76167;SDS011;64927;48.214;16.378;2023-02-01T15:49:32;10.13;;;4.65;;
76167;SDS011;64927;48.214;16.378;2023-02-01T15:52:02;3.72;;;1.52;;
76167;SDS011;64927;48.214;16.378;2023-02-01T15:54:32;5.65;;;1.30;;
76167;SDS011;64927;48.214;16.378;2023-02-01T15:57:09;3.08;;;1.50;;
76167;SDS011;64927;48.214;16.378;2023-02-01T15:59:42;4.97;;;1.40;;
76167;SDS011;64927;48.214;16.378;2023-02-01T16:02:26;5.28;;;1.35;;
76167;SDS011;64927;48.214;16.378;2023-02-01T16:04:51;5.43;;;1.85;;
76167;SDS011;64927;48.214;16.378;2023-02-01T16:07:27;2.95;;;1.30;;
76167;SDS011;64927;48.214;16.378;2023-02-01T16:09:55;3.83;;;1.50;;
76167;SDS011;64927;48.214;16.378;2023-02-01T16:12:44;4.45;;;1.67;;
76167;SDS011;64927;48.214;16.378;2023-02-01T16:15:13;3.33;;;1.65;;
76167;SDS011;64927;48.214;16.378;2023-02-01T16:17:38;2.03;;;1.08;;
76167;SDS011;64927;48.214;16.378;2023-02-01T16:20:04;3.30;;;1.27;;
76167;SDS011;64927;48.214;16.378;2023-02-01T16:22:30;5.05;;;1.70;;
76167;SDS011;64927;48.214;16.378;2023-02-01T16:24:56;4.97;;;1.65;;
76167;SDS011;64927;48.214;16.378;2023-02-01T16:27:22;5.90;;;1.90;;
76167;SDS011;64927;48.214;16.378;2023-02-01T16:29:50;2.88;;;1.35;;
76167;SDS011;64927;48.214;16.378;2023-02-01T16:32:19;4.30;;;1.25;;
76167;SDS011;64927;48.214;16.378;2023-02-01T16:34:46;3.55;;;1.50;;
76167;SDS011;64927;48.214;16.378;2023-02-01T16:37:13;3.70;;;1.50;;
76167;SDS011;64927;48.214;16.378;2023-02-01T16:39:41;6.90;;;2.88;;
76167;SDS011;64927;48.214;16.378;2023-02-01T16:42:13;6.63;;;2.30;;
76167;SDS011;64927;48.214;16.378;2023-02-01T16:44:40;5.43;;;2.08;;
76167;SDS011;64927;48.214;16.378;2023-02-01T16:47:20;5.65;;;1.67;;
76167;SDS011;64927;48.214;16.378;2023-02-01T16:49:47;4.07;;;1.77;;
76167;SDS011;64927;48.214;16.378;2023-02-01T16:52:23;5.13;;;2.15;;
76167;SDS011;64927;48.214;16.378;2023-02-01T16:54:50;7.18;;;2.17;;
76167;SDS011;64927;48.214;16.378;2023-02-01T16:57:21;9.88;;;2.00;;
76167;SDS011;64927;48.214;16.378;2023-02-01T16:59:52;4.85;;;2.08;;
76167;SDS011;64927;48.214;16.378;2023-02-01T17:02:22;8.55;;;2.55;;
76167;SDS011;64927;48.214;16.378;2023-02-01T17:04:48;5.32;;;2.10;;
76167;SDS011;64927;48.214;16.378;2023-02-01T17:07:15;3.65;;;2.50;;
76167;SDS011;64927;48.214;16.378;2023-02-01T17:09:43;8.48;;;2.03;;
76167;SDS011;64927;48.214;16.378;2023-02-01T17:14:51;8.27;;;2.55;;
76167;SDS011;64927;48.214;16.378;2023-02-01T17:17:18;6.60;;;2.58;;
76167;SDS011;64927;48.214;16.378;2023-02-01T17:19:51;6.00;;;2.38;;
76167;SDS011;64927;48.214;16.378;2023-02-01T17:22:23;7.47;;;2.80;;
76167;SDS011;64927;48.214;16.378;2023-02-01T17:24:52;6.22;;;3.05;;
76167;SDS011;64927;48.214;16.378;2023-02-01T17:27:18;4.53;;;2.88;;
76167;SDS011;64927;48.214;16.378;2023-02-01T17:29:43;4.07;;;2.80;;
76167;SDS011;64927;48.214;16.378;2023-02-01T17:32:17;7.45;;;2.97;;
76167;SDS011;64927;48.214;16.378;2023-02-01T17:34:45;6.03;;;3.25;;
76167;SDS011;64927;48.214;16.378;2023-02-01T17:37:45;6.00;;;3.10;;
76167;SDS011;64927;48.214;16.378;2023-02-01T17:40:04;5.63;;;2.67;;
76167;SDS011;64927;48.214;16.378;2023-02-01T17:42:30;7.25;;;3.22;;
76167;SDS011;64927;48.214;16.378;2023-02-01T17:44:57;11.82;;;4.72;;
76167;SDS011;64927;48.214;16.378;2023-02-01T17:47:25;6.28;;;3.35;;
76167;SDS011;64927;48.214;16.378;2023-02-01T17:49:54;7.03;;;3.15;;
76167;SDS011;64927;48.214;16.378;2023-02-01T17:52:21;9.00;;;3.35;;
76167;SDS011;64927;48.214;16.378;2023-02-01T17:54:48;6.18;;;2.90;;
76167;SDS011;64927;48.214;16.378;2023-02-01T17:57:17;8.45;;;3.03;;
76167;SDS011;64927;48.214;16.378;2023-02-01T17:59:46;6.28;;;2.58;;
76167;SDS011;64927;48.214;16.378;2023-02-01T18:02:19;7.20;;;2.72;;
76167;SDS011;64927;48.214;16.378;2023-02-01T18:04:46;7.80;;;3.70;;
76167;SDS011;64927;48.214;16.378;2023-02-01T18:07:15;10.13;;;2.60;;
76167;SDS011;64927;48.214;16.378;2023-02-01T18:09:44;10.02;;;3.25;;
76167;SDS011;64927;48.214;16.378;2023-02-01T18:12:17;7.35;;;3.08;;